createdAt,value
2019-02-06T00:00:44.555Z,99471.52
2019-02-06T00:03:18.665Z,99465.90
2019-02-06T00:05:47.966Z,99477.45
2019-02-06T00:08:17.235Z,99463.96
2019-02-06T00:10:46.493Z,99465.38
2019-02-06T00:13:16.008Z,99462.63
2019-02-06T00:15:45.336Z,99466.48
2019-02-06T00:18:14.991Z,99469.88
2019-02-06T00:20:44.258Z,99458.77
2019-02-06T00:23:13.545Z,99457.58
2019-02-06T00:25:43.328Z,99458.17
2019-02-06T00:28:12.632Z,99470.48
2019-02-06T00:30:41.979Z,99466.33
2019-02-06T00:33:11.554Z,99465.59
2019-02-06T00:35:40.839Z,99457.15
2019-02-06T00:38:10.092Z,99464.03
2019-02-06T00:40:39.369Z,99461.72
2019-02-06T00:43:08.646Z,99461.43
2019-02-06T00:45:37.900Z,99455.66
2019-02-06T00:48:07.178Z,99456.83
2019-02-06T00:50:36.467Z,99464.40
2019-02-06T00:53:05.946Z,99458.48
2019-02-06T00:55:35.205Z,99461.50
2019-02-06T00:58:04.808Z,99455.42
2019-02-06T01:00:34.383Z,99453.06
2019-02-06T01:03:04.178Z,99451.20
2019-02-06T01:05:38.560Z,99453.80
2019-02-06T01:08:04.621Z,99457.27
2019-02-06T01:10:33.898Z,99459.14
2019-02-06T01:13:03.165Z,99461.87
2019-02-06T01:15:32.464Z,99471.20
2019-02-06T01:18:01.997Z,99462.30
2019-02-06T01:20:31.281Z,99456.23
2019-02-06T01:23:00.545Z,99458.00
2019-02-06T01:25:29.805Z,99458.31
2019-02-06T01:27:59.415Z,99456.12
2019-02-06T01:30:31.622Z,99462.25
2019-02-06T01:33:01.101Z,99457.89
2019-02-06T01:35:30.407Z,99454.92
2019-02-06T01:37:59.723Z,99456.98
2019-02-06T01:40:28.990Z,99455.86
2019-02-06T01:42:58.273Z,99464.73
2019-02-06T01:45:27.777Z,99462.45
2019-02-06T01:47:57.421Z,99460.37
2019-02-06T01:50:26.921Z,99460.11
2019-02-06T01:52:56.299Z,99458.47
2019-02-06T01:55:25.575Z,99451.05
2019-02-06T01:57:54.832Z,99452.39
2019-02-06T02:00:24.751Z,99442.89
2019-02-06T02:02:54.477Z,99442.76
2019-02-06T02:05:23.931Z,99439.88
2019-02-06T02:07:53.214Z,99438.25
2019-02-06T02:10:22.490Z,99429.20
2019-02-06T02:12:51.776Z,99428.38
2019-02-06T02:15:21.078Z,99425.84
2019-02-06T02:17:50.357Z,99423.47
2019-02-06T02:20:21.470Z,99425.52
2019-02-06T02:22:50.963Z,99430.81
2019-02-06T02:25:20.224Z,99440.30
2019-02-06T02:27:49.491Z,99430.48
2019-02-06T02:30:23.494Z,99428.70
2019-02-06T02:32:53.024Z,99432.44
2019-02-06T02:35:22.294Z,99427.58
2019-02-06T02:37:51.553Z,99429.95
2019-02-06T02:40:20.848Z,99414.68
2019-02-06T02:42:50.222Z,99406.55
2019-02-06T02:45:20.495Z,99406.43
2019-02-06T02:47:49.915Z,99407.94
2019-02-06T02:50:19.612Z,99410.25
2019-02-06T02:52:48.882Z,99406.69
2019-02-06T02:55:18.287Z,99402.95
2019-02-06T02:57:47.616Z,99405.17
2019-02-06T03:00:19.013Z,99404.14
2019-02-06T03:02:59.172Z,99409.92
2019-02-06T03:05:30.744Z,99415.50
2019-02-06T03:08:00.039Z,99412.73
2019-02-06T03:10:29.310Z,99410.33
2019-02-06T03:12:58.591Z,99406.67
2019-02-06T03:15:27.870Z,99403.62
2019-02-06T03:17:57.154Z,99406.95
2019-02-06T03:20:26.440Z,99398.30
2019-02-06T03:22:55.718Z,99394.82
2019-02-06T03:25:24.998Z,99393.75
2019-02-06T03:27:54.271Z,99393.84
2019-02-06T03:30:23.895Z,99394.94
2019-02-06T03:32:53.151Z,99402.09
2019-02-06T03:35:22.430Z,99400.02
2019-02-06T03:37:51.691Z,99396.95
2019-02-06T03:40:20.982Z,99395.69
2019-02-06T03:42:50.445Z,99404.02
2019-02-06T03:45:19.925Z,99403.36
2019-02-06T03:47:49.358Z,99401.78
2019-02-06T03:50:19.024Z,99399.67
2019-02-06T03:52:48.636Z,99396.83
2019-02-06T03:55:17.927Z,99401.66
2019-02-06T03:57:47.219Z,99407.16
2019-02-06T04:00:16.954Z,99395.84
2019-02-06T04:02:46.233Z,99403.45
2019-02-06T04:05:15.703Z,99408.08
2019-02-06T04:07:45.005Z,99410.51
2019-02-06T04:10:15.227Z,99408.39
2019-02-06T04:12:45.682Z,99409.83
2019-02-06T04:15:15.619Z,99403.80
2019-02-06T04:17:44.892Z,99405.73
2019-02-06T04:20:14.465Z,99407.23
2019-02-06T04:22:43.879Z,99405.13
2019-02-06T04:25:14.364Z,99396.66
2019-02-06T04:27:43.640Z,99396.66
2019-02-06T04:30:14.115Z,99389.61
2019-02-06T04:32:43.477Z,99399.01
2019-02-06T04:35:13.948Z,99395.42
2019-02-06T04:37:43.244Z,99390.30
2019-02-06T04:40:15.709Z,99397.99
2019-02-06T04:42:45.204Z,99392.47
2019-02-06T04:45:16.058Z,99400.73
2019-02-06T04:47:45.724Z,99404.89
2019-02-06T04:50:15.370Z,99403.50
2019-02-06T04:52:44.657Z,99401.30
2019-02-06T04:55:15.212Z,99400.27
2019-02-06T04:57:44.500Z,99396.45
2019-02-06T05:00:17.233Z,99396.45
2019-02-06T05:02:46.495Z,99391.76
2019-02-06T05:05:15.778Z,99392.86
2019-02-06T05:07:45.046Z,99385.44
2019-02-06T05:10:14.929Z,99383.08
2019-02-06T05:12:44.480Z,99387.80
2019-02-06T05:15:14.246Z,99386.09
2019-02-06T05:17:43.513Z,99379.45
2019-02-06T05:20:27.853Z,99389.81
2019-02-06T05:22:57.235Z,99385.37
2019-02-06T05:25:26.776Z,99384.13
2019-02-06T05:27:56.076Z,99379.44
2019-02-06T05:30:25.358Z,99375.08
2019-02-06T05:32:54.620Z,99368.56
2019-02-06T05:35:24.010Z,99373.03
2019-02-06T05:37:53.292Z,99375.30
2019-02-06T05:40:22.977Z,99377.58
2019-02-06T05:42:53.034Z,99384.42
2019-02-06T05:45:22.571Z,99382.06
2019-02-06T05:47:51.835Z,99378.83
2019-02-06T05:50:21.379Z,99382.56
2019-02-06T05:52:50.636Z,99375.95
2019-02-06T05:55:21.331Z,99379.86
2019-02-06T05:57:53.223Z,99368.37
2019-02-06T06:00:28.421Z,99380.67
2019-02-06T06:02:58.280Z,99379.89
2019-02-06T06:05:28.207Z,99373.75
2019-02-06T06:08:00.131Z,99375.95
2019-02-06T06:10:31.394Z,99373.69
2019-02-06T06:13:01.105Z,99370.56
2019-02-06T06:15:30.678Z,99369.64
2019-02-06T06:18:00.551Z,99380.17
2019-02-06T06:20:30.095Z,99378.17
2019-02-06T06:22:59.764Z,99372.42
2019-02-06T06:25:30.060Z,99380.77
2019-02-06T06:27:59.617Z,99379.08
2019-02-06T06:30:29.105Z,99382.78
2019-02-06T06:32:58.869Z,99379.69
2019-02-06T06:35:28.491Z,99382.66
2019-02-06T06:37:59.794Z,99381.50
2019-02-06T06:40:31.039Z,99386.22
2019-02-06T06:43:00.657Z,99390.05
2019-02-06T06:45:30.124Z,99386.06
2019-02-06T06:47:59.509Z,99389.66
2019-02-06T06:50:29.219Z,99384.03
2019-02-06T06:52:58.807Z,99386.01
2019-02-06T06:55:28.794Z,99389.49
2019-02-06T06:57:59.711Z,99391.80
2019-02-06T07:00:30.530Z,99388.37
2019-02-06T07:03:00.409Z,99381.77
2019-02-06T07:05:29.696Z,99391.73
2019-02-06T07:08:09.050Z,99395.72
2019-02-06T07:10:29.950Z,99385.66
2019-02-06T07:12:59.221Z,99387.05
2019-02-06T07:15:30.666Z,99393.36
2019-02-06T07:17:59.973Z,99397.79
2019-02-06T07:20:29.268Z,99399.33
2019-02-06T07:22:58.907Z,99400.16
2019-02-06T07:25:28.163Z,99406.81
2019-02-06T07:27:57.441Z,99399.16
2019-02-06T07:30:32.338Z,99402.30
2019-02-06T07:33:02.133Z,99406.98
2019-02-06T07:35:31.409Z,99415.02
2019-02-06T07:38:01.074Z,99405.35
2019-02-06T07:40:30.442Z,99403.91
2019-02-06T07:42:59.737Z,99412.95
2019-02-06T07:45:29.003Z,99410.73
2019-02-06T07:47:58.261Z,99410.44
2019-02-06T07:50:29.890Z,99415.17
2019-02-06T07:52:59.482Z,99412.81
2019-02-06T07:55:28.981Z,99418.58
2019-02-06T07:57:58.533Z,99413.41
2019-02-06T08:00:27.815Z,99414.00
2019-02-06T08:02:57.982Z,99408.66
2019-02-06T08:05:27.562Z,99415.19
2019-02-06T08:07:57.207Z,99417.92
2019-02-06T08:10:31.657Z,99415.31
2019-02-06T08:13:01.132Z,99415.50
2019-02-06T08:15:30.692Z,99412.36
2019-02-06T08:17:59.974Z,99417.48
2019-02-06T08:20:29.257Z,99413.94
2019-02-06T08:22:58.613Z,99415.92
2019-02-06T08:25:27.887Z,99411.05
2019-02-06T08:27:57.249Z,99415.64
2019-02-06T08:30:28.831Z,99409.55
2019-02-06T08:32:58.315Z,99414.45
2019-02-06T08:35:27.602Z,99409.10
2019-02-06T08:37:56.972Z,99414.28
2019-02-06T08:40:27.114Z,99413.25
2019-02-06T08:42:56.350Z,99417.56
2019-02-06T08:45:25.739Z,99410.23
2019-02-06T08:47:55.500Z,99406.44
2019-02-06T08:50:25.224Z,99407.92
2019-02-06T08:52:54.652Z,99396.52
2019-02-06T08:55:29.005Z,99397.41
2019-02-06T08:57:58.764Z,99394.20
2019-02-06T09:00:34.335Z,99404.78
2019-02-06T09:03:03.994Z,99400.50
2019-02-06T09:05:33.477Z,99401.09
2019-02-06T09:08:02.770Z,99396.77
2019-02-06T09:10:32.149Z,99410.80
2019-02-06T09:13:01.659Z,99409.41
2019-02-06T09:15:30.914Z,99414.27
2019-02-06T09:18:00.273Z,99422.21
2019-02-06T09:20:30.374Z,99422.80
2019-02-06T09:23:00.761Z,99423.44
2019-02-06T09:25:30.299Z,99408.01
2019-02-06T09:27:59.708Z,99412.49
2019-02-06T09:30:30.915Z,99405.67
2019-02-06T09:33:00.806Z,99406.14
2019-02-06T09:35:30.266Z,99401.03
2019-02-06T09:37:59.573Z,99395.64
2019-02-06T09:40:30.145Z,99402.92
2019-02-06T09:42:59.634Z,99409.00
2019-02-06T09:45:29.285Z,99404.50
2019-02-06T09:47:58.573Z,99407.17
2019-02-06T09:50:30.867Z,99409.64
2019-02-06T09:53:00.256Z,99411.12
2019-02-06T09:55:29.893Z,99411.12
2019-02-06T09:57:59.400Z,99411.97
2019-02-06T10:00:31.531Z,99408.55
2019-02-06T10:03:01.078Z,99410.86
2019-02-06T10:05:30.505Z,99415.69
2019-02-06T10:07:59.894Z,99408.78
2019-02-06T10:10:29.505Z,99408.55
2019-02-06T10:12:58.894Z,99397.98
2019-02-06T10:15:30.450Z,99403.20
2019-02-06T10:18:01.403Z,99404.59
2019-02-06T10:20:39.869Z,99407.03
2019-02-06T10:23:10.037Z,99407.80
2019-02-06T10:25:39.979Z,99410.36
2019-02-06T10:28:09.262Z,99399.37
2019-02-06T10:30:41.874Z,99396.82
2019-02-06T10:33:11.165Z,99397.16
2019-02-06T10:35:40.598Z,99394.23
2019-02-06T10:38:10.619Z,99390.27
2019-02-06T10:40:40.138Z,99392.94
2019-02-06T10:43:09.798Z,99389.98
2019-02-06T10:45:39.372Z,99383.94
2019-02-06T10:48:09.233Z,99387.50
2019-02-06T10:50:44.825Z,99378.59
2019-02-06T10:53:14.106Z,99372.53
2019-02-06T10:55:43.534Z,99369.20
2019-02-06T10:58:12.981Z,99368.45
2019-02-06T11:00:48.585Z,99371.83
2019-02-06T11:03:18.137Z,99361.91
2019-02-06T11:05:47.423Z,99351.67
2019-02-06T11:08:16.781Z,99361.14
2019-02-06T11:10:46.037Z,99351.84
2019-02-06T11:13:15.738Z,99349.20
2019-02-06T11:15:44.980Z,99338.98
2019-02-06T11:18:14.264Z,99336.08
2019-02-06T11:20:43.521Z,99332.63
2019-02-06T11:23:13.704Z,99324.58
2019-02-06T11:25:42.956Z,99319.52
2019-02-06T11:28:12.666Z,99322.73
2019-02-06T11:30:41.927Z,99309.30
2019-02-06T11:33:11.182Z,99311.45
2019-02-06T11:35:40.460Z,99290.41
2019-02-06T11:38:09.924Z,99296.38
2019-02-06T11:40:39.210Z,99292.82
2019-02-06T11:43:08.945Z,99297.45
2019-02-06T11:45:38.236Z,99292.30
2019-02-06T11:48:07.829Z,99289.61
2019-02-06T11:50:44.850Z,99285.94
2019-02-06T11:53:19.491Z,99295.92
2019-02-06T11:55:49.285Z,99272.53
2019-02-06T11:58:18.765Z,99278.20
2019-02-06T12:01:19.093Z,99276.17
2019-02-06T12:03:49.644Z,99266.06
2019-02-06T12:06:18.924Z,99265.77
2019-02-06T12:08:48.181Z,99263.96
2019-02-06T12:11:17.517Z,99263.48
2019-02-06T12:13:46.786Z,99261.72
2019-02-06T12:16:16.048Z,99257.28
2019-02-06T12:18:45.334Z,99245.86
2019-02-06T12:21:17.814Z,99239.67
2019-02-06T12:23:45.780Z,99243.97
2019-02-06T12:26:15.132Z,99236.25
2019-02-06T12:28:44.405Z,99220.83
2019-02-06T12:31:14.780Z,99227.12
2019-02-06T12:33:44.046Z,99219.98
2019-02-06T12:36:15.726Z,99212.67
2019-02-06T12:38:53.171Z,99215.64
2019-02-06T12:41:15.694Z,99204.62
2019-02-06T12:43:44.955Z,99208.66
2019-02-06T12:46:14.219Z,99202.25
2019-02-06T12:48:43.528Z,99201.02
2019-02-06T12:51:12.799Z,99198.56
2019-02-06T12:53:42.369Z,99195.70
2019-02-06T12:56:11.682Z,99187.05
2019-02-06T12:58:41.059Z,99176.48
2019-02-06T13:01:10.316Z,99172.55
2019-02-06T13:03:39.597Z,99169.75
2019-02-06T13:06:08.854Z,99168.41
2019-02-06T13:08:38.609Z,99171.27
2019-02-06T13:11:07.906Z,99164.20
2019-02-06T13:13:37.162Z,99161.86
2019-02-06T13:16:06.443Z,99157.77
2019-02-06T13:18:35.704Z,99155.68
2019-02-06T13:21:05.087Z,99145.20
2019-02-06T13:23:34.445Z,99147.38
2019-02-06T13:26:03.839Z,99141.05
2019-02-06T13:28:33.109Z,99138.31
2019-02-06T13:31:02.386Z,99131.91
2019-02-06T13:33:31.701Z,99128.64
2019-02-06T13:36:00.954Z,99133.27
2019-02-06T13:38:30.244Z,99129.49
2019-02-06T13:40:59.497Z,99126.77
2019-02-06T13:43:28.793Z,99125.95
2019-02-06T13:45:58.054Z,99115.22
2019-02-06T13:48:27.360Z,99111.67
2019-02-06T13:50:56.667Z,99110.62
2019-02-06T13:53:25.958Z,99110.33
2019-02-06T13:55:55.257Z,99114.30
2019-02-06T13:58:24.561Z,99112.77
2019-02-06T14:00:53.826Z,99113.05
2019-02-06T14:03:23.092Z,99113.03
2019-02-06T14:05:52.401Z,99113.57
2019-02-06T14:08:21.669Z,99112.23
2019-02-06T14:11:00.024Z,99108.09
2019-02-06T14:13:21.935Z,99113.09
2019-02-06T14:15:51.469Z,99110.16
2019-02-06T14:18:20.862Z,99101.13
2019-02-06T14:20:54.334Z,99096.36
2019-02-06T14:23:34.301Z,99086.82
2019-02-06T14:26:18.117Z,99086.48
2019-02-06T14:29:36.677Z,99076.55
2019-02-06T14:32:55.298Z,99080.98
2019-02-06T14:35:49.886Z,99073.05
2019-02-06T14:39:12.187Z,99065.15
2019-02-06T14:42:19.644Z,99059.86
2019-02-06T14:45:43.267Z,99065.97
2019-02-06T14:48:33.948Z,99057.66
2019-02-06T14:51:16.901Z,99058.33
2019-02-06T14:54:16.972Z,99053.47
2019-02-06T14:57:16.295Z,99046.18
2019-02-06T15:00:27.608Z,99042.51
2019-02-06T15:03:43.505Z,99042.92
2019-02-06T15:06:44.179Z,99031.73
2019-02-06T15:10:13.025Z,99037.12
2019-02-06T15:12:53.095Z,99036.84
2019-02-06T15:15:50.000Z,99025.75
2019-02-06T15:18:44.502Z,99024.13
2019-02-06T15:21:57.910Z,99014.35
2019-02-06T15:25:01.845Z,99021.41
2019-02-06T15:28:24.305Z,99019.37
2019-02-06T15:31:33.245Z,99012.28
2019-02-06T15:34:36.800Z,99017.53
2019-02-06T15:37:33.657Z,99018.00
2019-02-06T15:40:34.683Z,99015.82
2019-02-06T15:43:41.334Z,99015.19
2019-02-06T15:46:42.966Z,99017.44
2019-02-06T15:49:38.691Z,99014.09
2019-02-06T15:52:45.020Z,99005.42
2019-02-06T15:55:40.475Z,99007.27
2019-02-06T15:58:38.485Z,98996.28
2019-02-06T16:01:39.040Z,99000.09
2019-02-06T16:05:22.033Z,99002.81
2019-02-06T16:08:18.950Z,99007.92
2019-02-06T16:11:42.628Z,99012.72
2019-02-06T16:14:36.795Z,99010.22
2019-02-06T16:17:46.085Z,99014.95
2019-02-06T16:20:40.060Z,99001.70
2019-02-06T16:23:47.433Z,99007.02
2019-02-06T16:27:22.250Z,99004.58
2019-02-06T16:30:25.063Z,98998.51
2019-02-06T16:33:31.246Z,99003.45
2019-02-06T16:36:15.458Z,98997.31
2019-02-06T16:39:20.298Z,99001.80
2019-02-06T16:42:32.575Z,99001.22
2019-02-06T16:45:37.719Z,98997.86
2019-02-06T16:48:32.577Z,99000.41
2019-02-06T16:51:34.199Z,98992.02
2019-02-06T16:54:50.893Z,98993.72
2019-02-06T16:57:39.269Z,98988.37
2019-02-06T17:00:59.013Z,98992.18
2019-02-06T17:04:18.995Z,98983.62
2019-02-06T17:07:13.651Z,98975.74
2019-02-06T17:10:21.139Z,98972.59
2019-02-06T17:13:55.853Z,98964.52
2019-02-06T17:17:17.737Z,98964.91
2019-02-06T17:20:08.864Z,98957.48
2019-02-06T17:23:05.761Z,98958.69
2019-02-06T17:26:21.990Z,98969.72
2019-02-06T17:29:39.325Z,98963.78
2019-02-06T17:32:50.491Z,98969.52
2019-02-06T17:35:33.751Z,98964.37
2019-02-06T17:38:37.415Z,98960.69
2019-02-06T17:41:45.103Z,98960.93
2019-02-06T17:44:39.912Z,98960.78
2019-02-06T17:47:50.549Z,98959.36
2019-02-06T17:50:46.278Z,98954.91
2019-02-06T17:53:43.290Z,98945.98
2019-02-06T17:56:12.553Z,98947.45
2019-02-06T17:58:44.111Z,98943.41
2019-02-06T18:01:17.638Z,98940.68
2019-02-06T18:03:51.193Z,98938.39
2019-02-06T18:06:20.482Z,98934.28
2019-02-06T18:08:56.449Z,98931.14
2019-02-06T18:11:20.754Z,98929.56
2019-02-06T18:13:50.419Z,98931.64
2019-02-06T18:16:21.393Z,98928.80
2019-02-06T18:18:50.711Z,98928.97
2019-02-06T18:21:20.160Z,98926.65
2019-02-06T18:23:49.554Z,98925.63
2019-02-06T18:26:19.898Z,98922.28
2019-02-06T18:28:49.578Z,98934.20
2019-02-06T18:31:19.066Z,98936.53
2019-02-06T18:33:48.366Z,98932.77
2019-02-06T18:36:17.659Z,98925.76
2019-02-06T18:38:48.667Z,98923.95
2019-02-06T18:41:17.949Z,98926.73
2019-02-06T18:43:47.254Z,98920.51
2019-02-06T18:46:16.945Z,98910.97
2019-02-06T18:48:46.438Z,98917.75
2019-02-06T18:51:15.830Z,98918.59
2019-02-06T18:53:45.183Z,98917.93
2019-02-06T18:56:14.922Z,98919.07
2019-02-06T18:58:44.226Z,98915.69
2019-02-06T19:01:13.761Z,98919.83
2019-02-06T19:03:45.167Z,98916.52
2019-02-06T19:06:14.714Z,98917.84
2019-02-06T19:08:44.141Z,98911.83
2019-02-06T19:11:13.594Z,98916.69
2019-02-06T19:13:42.900Z,98911.46
2019-02-06T19:16:12.191Z,98909.41
2019-02-06T19:18:42.827Z,98909.27
2019-02-06T19:21:12.425Z,98906.88
2019-02-06T19:23:42.855Z,98895.25
2019-02-06T19:26:12.171Z,98894.48
2019-02-06T19:28:41.440Z,98896.40
2019-02-06T19:31:10.749Z,98889.91
2019-02-06T19:33:40.037Z,98893.33
2019-02-06T19:36:09.344Z,98899.48
2019-02-06T19:38:38.909Z,98896.53
2019-02-06T19:41:08.218Z,98891.34
2019-02-06T19:43:37.503Z,98888.86
2019-02-06T19:46:06.998Z,98882.19
2019-02-06T19:48:36.397Z,98884.77
2019-02-06T19:51:05.743Z,98870.86
2019-02-06T19:53:35.246Z,98871.21
2019-02-06T19:56:06.430Z,98870.64
2019-02-06T19:58:35.770Z,98869.97
2019-02-06T20:01:05.043Z,98866.28
2019-02-06T20:03:34.372Z,98867.91
2019-02-06T20:06:05.732Z,98864.66
2019-02-06T20:08:35.985Z,98872.09
2019-02-06T20:11:08.190Z,98863.21
2019-02-06T20:13:37.742Z,98856.73
2019-02-06T20:16:07.104Z,98850.84
2019-02-06T20:18:36.409Z,98843.86
2019-02-06T20:21:06.812Z,98840.16
2019-02-06T20:23:36.144Z,98847.49
2019-02-06T20:26:05.761Z,98830.31
2019-02-06T20:28:35.017Z,98836.05
2019-02-06T20:31:04.294Z,98833.47
2019-02-06T20:33:33.694Z,98818.50
2019-02-06T20:36:04.291Z,98815.94
2019-02-06T20:38:34.250Z,98823.37
2019-02-06T20:41:03.699Z,98814.31
2019-02-06T20:43:33.168Z,98813.17
2019-02-06T20:46:02.865Z,98808.12
2019-02-06T20:48:32.862Z,98812.34
2019-02-06T20:51:02.298Z,98808.81
2019-02-06T20:53:33.647Z,98804.23
2019-02-06T20:56:02.942Z,98796.11
2019-02-06T20:58:32.749Z,98790.97
2019-02-06T21:01:02.125Z,98793.94
2019-02-06T21:03:31.560Z,98780.30
2019-02-06T21:06:00.855Z,98782.66
2019-02-06T21:08:30.114Z,98788.80
2019-02-06T21:10:59.852Z,98780.52
2019-02-06T21:13:33.103Z,98770.97
2019-02-06T21:16:02.913Z,98777.98
2019-02-06T21:18:34.161Z,98785.92
2019-02-06T21:21:09.386Z,98781.55
2019-02-06T21:23:40.935Z,98795.55
2019-02-06T21:26:12.321Z,98795.55
2019-02-06T21:28:44.022Z,98787.18
2019-02-06T21:31:15.558Z,98786.59
2019-02-06T21:33:48.674Z,98786.68
2019-02-06T21:36:20.025Z,98786.39
2019-02-06T21:38:51.548Z,98775.17
2019-02-06T21:41:22.899Z,98782.09
2019-02-06T21:43:54.540Z,98780.98
2019-02-06T21:46:26.383Z,98787.08
2019-02-06T21:48:56.386Z,98785.11
2019-02-06T21:51:27.311Z,98781.06
2019-02-06T21:53:57.895Z,98781.53
2019-02-06T21:56:29.801Z,98778.28
2019-02-06T21:59:01.038Z,98775.55
2019-02-06T22:01:31.340Z,98771.36
2019-02-06T22:04:01.873Z,98770.16
2019-02-06T22:06:32.655Z,98768.28
2019-02-06T22:09:04.798Z,98765.52
2019-02-06T22:11:36.258Z,98755.59
2019-02-06T22:14:07.709Z,98749.34
2019-02-06T22:16:37.319Z,98753.16
2019-02-06T22:19:06.613Z,98744.36
2019-02-06T22:21:36.147Z,98752.41
2019-02-06T22:24:08.102Z,98752.88
2019-02-06T22:26:37.377Z,98750.79
2019-02-06T22:29:06.848Z,98745.34
2019-02-06T22:31:36.714Z,98742.63
2019-02-06T22:34:06.181Z,98744.88
2019-02-06T22:36:35.881Z,98743.91
2019-02-06T22:39:10.553Z,98743.83
2019-02-06T22:41:40.023Z,98745.23
2019-02-06T22:44:09.335Z,98736.48
2019-02-06T22:46:38.650Z,98731.55
2019-02-06T22:49:07.985Z,98726.97
2019-02-06T22:51:37.252Z,98727.05
2019-02-06T22:54:06.566Z,98723.44
2019-02-06T22:56:36.040Z,98726.75
2019-02-06T22:59:05.810Z,98733.05
2019-02-06T23:01:42.962Z,98730.73
2019-02-06T23:04:12.398Z,98738.14
2019-02-06T23:06:41.834Z,98729.73
2019-02-06T23:09:11.264Z,98730.31
2019-02-06T23:11:40.850Z,98724.76
2019-02-06T23:14:17.083Z,98721.58
2019-02-06T23:16:41.330Z,98719.58
2019-02-06T23:19:10.593Z,98726.30
2019-02-06T23:21:40.077Z,98720.10
2019-02-06T23:24:09.350Z,98718.85
2019-02-06T23:26:38.742Z,98713.64
2019-02-06T23:29:08.086Z,98728.91
2019-02-06T23:31:37.753Z,98726.61
2019-02-06T23:34:07.164Z,98718.68
2019-02-06T23:36:36.426Z,98711.42
2019-02-06T23:39:13.949Z,98708.89
2019-02-06T23:41:43.210Z,98712.98
2019-02-06T23:44:12.895Z,98715.56
2019-02-06T23:46:42.195Z,98697.80
2019-02-06T23:49:11.461Z,98691.02
2019-02-06T23:51:40.746Z,98685.88
2019-02-06T23:54:10.005Z,98684.02
2019-02-06T23:56:39.342Z,98690.73
2019-02-06T23:59:09.049Z,98685.64
